createdAt,value
2022-09-21T00:00:26.425Z,4.47
2022-09-21T00:02:56.516Z,4.05
2022-09-21T00:05:23.962Z,5.03
2022-09-21T00:07:50.908Z,3.95
2022-09-21T00:10:20.188Z,5.00
2022-09-21T00:12:48.665Z,4.57
2022-09-21T00:15:19.830Z,4.85
2022-09-21T00:17:47.811Z,4.55
2022-09-21T00:20:15.028Z,4.68
2022-09-21T00:22:42.055Z,4.57
2022-09-21T00:25:09.502Z,4.53
2022-09-21T00:27:36.806Z,4.90
2022-09-21T00:30:04.476Z,5.07
2022-09-21T00:32:31.712Z,4.38
2022-09-21T00:34:59.129Z,4.15
2022-09-21T00:37:26.689Z,4.68
2022-09-21T00:39:54.017Z,4.78
2022-09-21T00:42:27.616Z,4.53
2022-09-21T00:44:54.752Z,4.78
2022-09-21T00:47:31.692Z,3.92
2022-09-21T00:49:59.618Z,4.40
2022-09-21T00:52:29.150Z,4.93
2022-09-21T00:55:04.550Z,4.32
2022-09-21T00:57:32.120Z,3.33
2022-09-21T01:00:01.440Z,4.13
2022-09-21T01:02:28.583Z,4.53
2022-09-21T01:04:55.809Z,4.70
2022-09-21T01:07:26.408Z,4.07
2022-09-21T01:09:55.171Z,5.38
2022-09-21T01:12:30.781Z,4.88
2022-09-21T01:15:11.384Z,4.97
2022-09-21T01:17:53.081Z,5.55
2022-09-21T01:20:29.416Z,5.05
2022-09-21T01:23:21.003Z,4.97
2022-09-21T01:26:05.852Z,6.15
2022-09-21T01:29:00.388Z,6.00
2022-09-21T01:31:41.075Z,5.18
2022-09-21T01:34:16.100Z,5.82
2022-09-21T01:36:43.941Z,4.90
2022-09-21T01:39:13.376Z,4.75
2022-09-21T01:41:41.726Z,5.20
2022-09-21T01:44:12.444Z,4.95
2022-09-21T01:46:39.625Z,5.22
2022-09-21T01:49:14.321Z,5.70
2022-09-21T01:52:03.027Z,4.78
2022-09-21T01:54:35.771Z,4.90
2022-09-21T01:57:12.294Z,5.10
2022-09-21T01:59:59.380Z,6.63
2022-09-21T02:02:32.067Z,6.13
2022-09-21T02:05:01.624Z,6.53
2022-09-21T02:07:28.452Z,6.55
2022-09-21T02:09:56.220Z,6.22
2022-09-21T02:12:23.344Z,7.50
2022-09-21T02:14:51.291Z,7.25
2022-09-21T02:17:40.830Z,6.07
2022-09-21T02:20:24.414Z,6.50
2022-09-21T02:23:00.204Z,7.25
2022-09-21T02:25:47.446Z,6.72
2022-09-21T02:28:51.173Z,6.63
2022-09-21T02:31:38.142Z,6.53
2022-09-21T02:34:25.100Z,7.55
2022-09-21T02:37:19.984Z,6.88
2022-09-21T02:40:03.036Z,6.50
2022-09-21T02:42:35.094Z,6.47
2022-09-21T02:45:22.875Z,6.55
2022-09-21T02:48:08.840Z,7.00
2022-09-21T02:51:00.101Z,5.78
2022-09-21T02:53:33.743Z,5.60
2022-09-21T02:56:07.303Z,5.88
2022-09-21T02:58:45.376Z,7.28
2022-09-21T03:01:12.551Z,7.00
2022-09-21T03:03:39.368Z,6.03
2022-09-21T03:06:06.218Z,6.65
2022-09-21T03:08:32.932Z,11.32
2022-09-21T03:10:59.555Z,5.55
2022-09-21T03:13:26.243Z,7.40
2022-09-21T03:16:03.918Z,7.07
2022-09-21T03:18:31.105Z,8.75
2022-09-21T03:20:57.849Z,6.50
2022-09-21T03:23:24.498Z,6.32
2022-09-21T03:25:54.756Z,6.70
2022-09-21T03:28:22.245Z,7.55
2022-09-21T03:30:50.511Z,7.95
2022-09-21T03:33:19.132Z,7.20
2022-09-21T03:35:48.007Z,7.05
2022-09-21T03:38:15.128Z,6.85
2022-09-21T03:40:46.217Z,5.35
2022-09-21T03:43:13.236Z,6.45
2022-09-21T03:45:41.722Z,6.53
2022-09-21T03:48:10.217Z,7.57
2022-09-21T03:50:36.965Z,8.18
2022-09-21T03:53:03.906Z,7.55
2022-09-21T03:55:31.760Z,6.45
2022-09-21T03:57:58.379Z,6.53
2022-09-21T04:00:24.991Z,7.50
2022-09-21T04:02:51.828Z,7.43
2022-09-21T04:05:18.704Z,4.97
2022-09-21T04:07:48.660Z,5.68
2022-09-21T04:10:19.925Z,7.22
2022-09-21T04:12:47.133Z,6.10
2022-09-21T04:15:21.659Z,6.10
2022-09-21T04:17:51.524Z,6.88
2022-09-21T04:20:18.361Z,7.10
2022-09-21T04:22:45.341Z,5.65
2022-09-21T04:25:12.885Z,4.38
2022-09-21T04:27:40.404Z,6.32
2022-09-21T04:30:08.496Z,5.72
2022-09-21T04:32:35.146Z,5.57
2022-09-21T04:35:01.779Z,5.35
2022-09-21T04:37:28.440Z,6.45
2022-09-21T04:39:55.073Z,5.80
2022-09-21T04:42:21.815Z,5.75
2022-09-21T04:44:48.468Z,5.60
2022-09-21T04:47:15.216Z,5.60
2022-09-21T04:49:41.880Z,5.50
2022-09-21T04:52:08.555Z,6.90
2022-09-21T04:54:35.232Z,5.35
2022-09-21T04:57:01.905Z,4.97
2022-09-21T04:59:28.629Z,4.65
2022-09-21T05:01:55.286Z,4.78
2022-09-21T05:04:21.896Z,4.78
2022-09-21T05:06:48.624Z,4.57
2022-09-21T05:09:35.071Z,4.45
2022-09-21T05:12:03.083Z,5.25
2022-09-21T05:14:29.736Z,5.07
2022-09-21T05:16:56.412Z,4.38
2022-09-21T05:19:23.714Z,5.38
2022-09-21T05:21:50.473Z,5.95
2022-09-21T05:24:17.394Z,4.47
2022-09-21T05:26:44.129Z,4.63
2022-09-21T05:29:11.055Z,3.45
2022-09-21T05:31:47.824Z,4.90
2022-09-21T05:34:29.446Z,3.95
2022-09-21T05:37:06.770Z,5.00
2022-09-21T05:39:33.742Z,4.93
2022-09-21T05:42:00.725Z,4.00
2022-09-21T05:44:27.812Z,4.88
2022-09-21T05:47:15.489Z,4.38
2022-09-21T05:50:09.961Z,5.63
2022-09-21T05:53:00.318Z,2.50
2022-09-21T05:55:33.881Z,3.35
2022-09-21T05:58:14.487Z,3.90
2022-09-21T06:01:07.291Z,4.05
2022-09-21T06:03:36.287Z,3.97
2022-09-21T06:08:29.425Z,3.70
2022-09-21T06:10:56.242Z,2.80
2022-09-21T06:13:22.991Z,2.80
2022-09-21T06:15:49.658Z,2.70
2022-09-21T06:18:18.141Z,3.25
2022-09-21T06:20:45.135Z,3.33
2022-09-21T06:23:12.844Z,3.53
2022-09-21T06:25:39.743Z,3.53
2022-09-21T06:28:13.743Z,2.83
2022-09-21T06:30:42.420Z,3.28
2022-09-21T06:33:09.702Z,2.95
2022-09-21T06:35:37.111Z,2.80
2022-09-21T06:38:05.761Z,3.22
2022-09-21T06:40:36.179Z,2.22
2022-09-21T06:43:04.950Z,3.28
2022-09-21T06:45:31.604Z,2.97
2022-09-21T06:47:58.388Z,2.83
2022-09-21T06:50:25.291Z,3.03
2022-09-21T06:52:51.967Z,2.42
2022-09-21T06:55:18.886Z,1.73
2022-09-21T06:57:46.177Z,2.50
2022-09-21T07:00:13.728Z,2.28
2022-09-21T07:02:46.744Z,3.05
2022-09-21T07:05:13.665Z,1.73
2022-09-21T07:07:40.549Z,1.85
2022-09-21T07:10:13.202Z,2.63
2022-09-21T07:12:43.273Z,1.45
2022-09-21T07:15:10.610Z,1.55
2022-09-21T07:17:39.010Z,2.58
2022-09-21T07:20:07.908Z,1.90
2022-09-21T07:22:35.001Z,2.22
2022-09-21T07:25:01.669Z,2.22
2022-09-21T07:27:29.955Z,2.80
2022-09-21T07:29:56.583Z,2.42
2022-09-21T07:32:23.352Z,2.60
2022-09-21T07:34:49.978Z,2.30
2022-09-21T07:37:16.681Z,2.28
2022-09-21T07:39:43.376Z,2.33
2022-09-21T07:42:10.035Z,1.73
2022-09-21T07:44:36.663Z,2.63
2022-09-21T07:47:03.515Z,3.42
2022-09-21T07:49:30.268Z,2.40
2022-09-21T07:52:01.445Z,2.58
2022-09-21T07:54:30.443Z,2.05
2022-09-21T07:57:15.691Z,2.10
2022-09-21T07:59:42.358Z,2.10
2022-09-21T08:02:09.101Z,2.63
2022-09-21T08:04:35.838Z,3.20
2022-09-21T08:07:02.518Z,1.95
2022-09-21T08:09:29.153Z,3.25
2022-09-21T08:11:56.136Z,2.75
2022-09-21T08:14:26.287Z,3.15
2022-09-21T08:16:53.399Z,1.80
2022-09-21T08:19:20.446Z,2.50
2022-09-21T08:21:53.533Z,2.58
2022-09-21T08:24:23.055Z,2.53
2022-09-21T08:26:52.291Z,2.45
2022-09-21T08:29:19.335Z,2.78
2022-09-21T08:31:46.858Z,2.30
2022-09-21T08:34:14.321Z,2.47
2022-09-21T08:36:41.202Z,2.17
2022-09-21T08:39:08.885Z,2.75
2022-09-21T08:42:13.293Z,1.60
2022-09-21T08:44:43.509Z,2.40
2022-09-21T08:47:17.607Z,1.25
2022-09-21T08:49:51.753Z,2.53
2022-09-21T08:52:19.822Z,1.70
2022-09-21T08:54:57.078Z,2.95
2022-09-21T08:57:30.189Z,2.15
2022-09-21T08:59:57.026Z,1.50
2022-09-21T09:02:54.592Z,3.03
2022-09-21T09:05:48.668Z,1.35
2022-09-21T09:08:38.297Z,1.85
2022-09-21T09:11:17.110Z,1.23
2022-09-21T09:13:52.992Z,1.33
2022-09-21T09:16:46.095Z,1.60
2022-09-21T09:19:37.517Z,1.52
2022-09-21T09:22:07.094Z,1.77
2022-09-21T09:24:48.333Z,2.65
2022-09-21T09:27:17.952Z,1.27
2022-09-21T09:30:05.074Z,1.23
2022-09-21T09:35:17.717Z,1.65
2022-09-21T09:37:45.089Z,1.48
2022-09-21T09:40:13.551Z,1.38
2022-09-21T09:43:04.935Z,1.10
2022-09-21T09:45:43.561Z,1.38
2022-09-21T09:48:15.997Z,1.58
2022-09-21T09:50:42.992Z,1.00
2022-09-21T09:53:13.243Z,1.70
2022-09-21T09:55:43.827Z,1.08
2022-09-21T09:58:29.628Z,2.10
2022-09-21T10:00:58.780Z,1.52
2022-09-21T10:03:27.300Z,1.52
2022-09-21T10:05:54.807Z,1.50
2022-09-21T10:08:30.720Z,0.95
2022-09-21T10:10:57.632Z,1.88
2022-09-21T10:13:33.089Z,1.40
2022-09-21T10:16:23.089Z,1.23
2022-09-21T10:18:52.591Z,1.27
2022-09-21T10:21:33.289Z,1.42
2022-09-21T10:24:14.414Z,2.15
2022-09-21T10:29:21.916Z,2.08
2022-09-21T10:31:57.110Z,1.70
2022-09-21T10:34:24.696Z,1.30
2022-09-21T10:36:55.133Z,1.50
2022-09-21T10:39:23.264Z,1.40
2022-09-21T10:42:10.903Z,1.88
2022-09-21T10:44:48.171Z,1.77
2022-09-21T10:47:17.752Z,1.75
2022-09-21T10:49:50.442Z,1.65
2022-09-21T10:52:19.419Z,2.83
2022-09-21T10:57:16.694Z,1.00
2022-09-21T10:59:44.643Z,2.35
2022-09-21T11:02:33.241Z,2.45
2022-09-21T11:05:14.278Z,1.40
2022-09-21T11:07:51.359Z,2.42
2022-09-21T11:10:56.216Z,2.03
2022-09-21T11:13:30.002Z,2.13
2022-09-21T11:16:09.857Z,2.60
2022-09-21T11:18:55.306Z,2.15
2022-09-21T11:21:47.482Z,1.90
2022-09-21T11:24:23.197Z,1.77
2022-09-21T11:27:24.929Z,2.28
2022-09-21T11:30:04.424Z,2.20
2022-09-21T11:32:49.113Z,1.50
2022-09-21T11:35:22.359Z,1.98
2022-09-21T11:38:01.143Z,1.40
2022-09-21T11:40:43.065Z,2.33
2022-09-21T11:43:23.771Z,1.50
2022-09-21T11:45:57.589Z,2.05
2022-09-21T11:48:30.502Z,1.30
2022-09-21T11:51:38.136Z,2.25
2022-09-21T11:54:42.485Z,1.75
2022-09-21T11:57:19.864Z,2.45
2022-09-21T12:00:08.204Z,2.63
2022-09-21T12:02:57.647Z,2.45
2022-09-21T12:05:33.249Z,2.33
2022-09-21T12:08:27.695Z,2.25
2022-09-21T12:11:18.801Z,3.45
2022-09-21T12:14:04.215Z,3.17
2022-09-21T12:16:59.666Z,2.53
2022-09-21T12:19:51.118Z,2.42
2022-09-21T12:22:29.599Z,1.70
2022-09-21T12:25:02.227Z,1.83
2022-09-21T12:27:34.326Z,3.05
2022-09-21T12:30:20.765Z,2.70
2022-09-21T12:33:14.166Z,2.25
2022-09-21T12:38:27.100Z,2.08
2022-09-21T12:41:11.953Z,2.45
2022-09-21T12:43:56.777Z,1.65
2022-09-21T12:46:24.502Z,2.22
2022-09-21T12:48:51.262Z,2.28
2022-09-21T12:51:42.007Z,2.13
2022-09-21T12:54:14.722Z,3.30
2022-09-21T12:56:44.978Z,3.35
2022-09-21T12:59:12.036Z,2.70
2022-09-21T13:02:15.209Z,2.58
2022-09-21T13:05:26.488Z,2.75
2022-09-21T13:08:07.132Z,3.03
2022-09-21T13:10:55.399Z,2.33
2022-09-21T13:13:45.548Z,3.05
2022-09-21T13:16:31.728Z,5.75
2022-09-21T13:19:13.682Z,2.03
2022-09-21T13:21:40.506Z,2.42
2022-09-21T13:24:26.121Z,2.13
2022-09-21T13:26:56.174Z,2.05
2022-09-21T13:29:22.753Z,2.17
2022-09-21T13:32:00.410Z,1.80
2022-09-21T13:34:43.511Z,1.45
2022-09-21T13:37:16.883Z,2.78
2022-09-21T13:39:44.513Z,2.47
2022-09-21T13:42:29.535Z,2.30
2022-09-21T13:44:58.073Z,1.45
2022-09-21T13:47:41.882Z,1.90
2022-09-21T13:50:19.745Z,3.40
2022-09-21T13:52:50.689Z,1.77
2022-09-21T13:55:34.730Z,2.42
2022-09-21T13:58:05.194Z,2.65
2022-09-21T14:00:40.827Z,3.08
2022-09-21T14:03:32.300Z,1.30
2022-09-21T14:06:06.812Z,1.40
2022-09-21T14:08:37.889Z,2.35
2022-09-21T14:11:10.669Z,3.30
2022-09-21T14:13:59.514Z,3.20
2022-09-21T14:16:36.553Z,2.63
2022-09-21T14:19:19.616Z,3.45
2022-09-21T14:22:04.836Z,5.88
2022-09-21T14:24:38.217Z,4.43
2022-09-21T14:27:30.236Z,3.22
2022-09-21T14:30:04.253Z,2.10
2022-09-21T14:32:43.618Z,4.20
2022-09-21T14:35:18.624Z,1.80
2022-09-21T14:37:49.358Z,2.75
2022-09-21T14:40:21.360Z,2.75
2022-09-21T14:42:49.430Z,2.70
2022-09-21T14:45:20.712Z,3.03
2022-09-21T14:48:13.751Z,1.95
2022-09-21T14:50:40.376Z,2.40
2022-09-21T14:54:05.715Z,1.48
2022-09-21T14:56:33.376Z,2.53
2022-09-21T14:59:26.041Z,3.72
2022-09-21T15:02:02.399Z,3.28
2022-09-21T15:04:56.204Z,3.05
2022-09-21T15:08:07.630Z,2.90
2022-09-21T15:10:55.608Z,3.30
2022-09-21T15:13:37.452Z,3.08
2022-09-21T15:16:37.555Z,2.60
2022-09-21T15:19:27.283Z,4.38
2022-09-21T15:21:56.606Z,3.88
2022-09-21T15:24:31.940Z,4.25
2022-09-21T15:27:17.101Z,2.58
2022-09-21T15:29:53.772Z,3.85
2022-09-21T15:32:26.175Z,6.45
2022-09-21T15:35:04.040Z,2.55
2022-09-21T15:37:36.133Z,5.95
2022-09-21T15:40:06.521Z,6.05
2022-09-21T15:42:36.230Z,2.83
2022-09-21T15:45:18.099Z,3.42
2022-09-21T15:47:45.386Z,5.70
2022-09-21T15:50:13.882Z,4.68
2022-09-21T15:52:45.888Z,5.05
2022-09-21T15:55:21.625Z,3.97
2022-09-21T15:57:58.913Z,4.30
2022-09-21T16:00:27.042Z,7.65
2022-09-21T16:03:05.710Z,1.38
2022-09-21T16:05:44.967Z,2.30
2022-09-21T16:08:31.142Z,4.47
2022-09-21T16:11:16.901Z,1.90
2022-09-21T16:14:03.077Z,2.92
2022-09-21T16:16:29.831Z,3.35
2022-09-21T16:19:00.121Z,2.38
2022-09-21T16:21:34.282Z,2.92
2022-09-21T16:24:18.681Z,3.05
2022-09-21T16:26:57.183Z,3.35
2022-09-21T16:29:26.517Z,4.57
2022-09-21T16:32:18.992Z,3.55
2022-09-21T16:34:49.578Z,4.85
2022-09-21T16:37:28.100Z,2.95
2022-09-21T16:39:57.071Z,4.70
2022-09-21T16:42:27.934Z,3.22
2022-09-21T16:44:55.171Z,2.83
2022-09-21T16:47:25.962Z,2.63
2022-09-21T16:50:02.674Z,3.00
2022-09-21T16:52:30.332Z,3.00
2022-09-21T16:54:59.605Z,4.50
2022-09-21T16:57:26.693Z,3.58
2022-09-21T16:59:53.701Z,3.42
2022-09-21T17:02:20.674Z,2.50
2022-09-21T17:04:48.213Z,2.08
2022-09-21T17:07:16.827Z,4.93
2022-09-21T17:09:46.451Z,3.63
2022-09-21T17:12:15.653Z,5.18
2022-09-21T17:14:46.762Z,3.97
2022-09-21T17:17:18.111Z,2.20
2022-09-21T17:19:46.649Z,1.63
2022-09-21T17:22:23.206Z,3.10
2022-09-21T17:24:52.366Z,2.65
2022-09-21T17:27:21.679Z,7.75
2022-09-21T17:29:49.810Z,6.35
2022-09-21T17:32:20.657Z,3.08
2022-09-21T17:35:12.442Z,4.60
2022-09-21T17:37:39.097Z,7.82
2022-09-21T17:40:10.671Z,2.50
2022-09-21T17:42:43.345Z,6.63
2022-09-21T17:45:45.047Z,7.13
2022-09-21T17:48:17.797Z,8.30
2022-09-21T17:50:44.589Z,9.40
2022-09-21T17:53:30.517Z,5.82
2022-09-21T17:55:59.238Z,4.78
2022-09-21T17:58:43.474Z,3.45
2022-09-21T18:01:34.879Z,4.97
2022-09-21T18:04:02.135Z,3.42
2022-09-21T18:06:29.464Z,4.13
2022-09-21T18:08:57.412Z,6.93
2022-09-21T18:11:49.398Z,8.45
2022-09-21T18:14:39.589Z,6.13
2022-09-21T18:17:24.921Z,3.55
2022-09-21T18:19:57.284Z,8.05
2022-09-21T18:22:35.391Z,6.72
2022-09-21T18:25:12.074Z,3.20
2022-09-21T18:27:39.004Z,4.63
2022-09-21T18:30:08.000Z,4.25
2022-09-21T18:32:41.122Z,3.92
2022-09-21T18:35:16.040Z,4.78
2022-09-21T18:38:04.828Z,6.75
2022-09-21T18:40:40.345Z,3.95
2022-09-21T18:43:42.310Z,3.67
2022-09-21T18:46:17.272Z,4.00
2022-09-21T18:49:05.615Z,3.80
2022-09-21T18:51:38.317Z,4.35
2022-09-21T18:54:05.296Z,5.75
2022-09-21T18:56:35.220Z,5.05
2022-09-21T18:59:02.922Z,4.43
2022-09-21T19:01:33.065Z,2.50
2022-09-21T19:04:00.953Z,2.80
2022-09-21T19:06:41.067Z,6.78
2022-09-21T19:09:19.579Z,2.88
2022-09-21T19:12:13.283Z,14.25
2022-09-21T19:17:32.991Z,2.70
2022-09-21T19:20:13.257Z,2.97
2022-09-21T19:22:50.598Z,2.30
2022-09-21T19:25:49.953Z,2.90
2022-09-21T19:29:00.560Z,2.55
2022-09-21T19:31:27.406Z,2.60
2022-09-21T19:33:54.131Z,3.63
2022-09-21T19:36:20.988Z,3.25
2022-09-21T19:38:48.132Z,2.90
2022-09-21T19:41:38.292Z,3.05
2022-09-21T19:44:38.845Z,2.53
2022-09-21T19:47:31.947Z,3.03
2022-09-21T19:50:18.054Z,3.08
2022-09-21T19:52:45.365Z,3.20
2022-09-21T19:55:35.152Z,3.28
2022-09-21T19:58:20.674Z,3.25
2022-09-21T20:00:53.803Z,4.22
2022-09-21T20:03:31.745Z,4.00
2022-09-21T20:06:10.856Z,3.50
2022-09-21T20:08:54.475Z,3.50
2022-09-21T20:11:26.345Z,3.35
2022-09-21T20:14:09.293Z,3.67
2022-09-21T20:17:00.770Z,3.97
2022-09-21T20:19:33.390Z,4.10
2022-09-21T20:22:09.915Z,3.38
2022-09-21T20:24:56.814Z,2.33
2022-09-21T20:27:34.895Z,3.42
2022-09-21T20:30:07.056Z,3.45
2022-09-21T20:32:34.817Z,3.35
2022-09-21T20:35:01.499Z,3.17
2022-09-21T20:37:30.295Z,3.65
2022-09-21T20:39:56.969Z,2.28
2022-09-21T20:42:25.337Z,3.13
2022-09-21T20:44:52.646Z,3.13
2022-09-21T20:47:20.357Z,3.22
2022-09-21T20:49:47.808Z,3.03
2022-09-21T20:52:16.937Z,2.08
2022-09-21T20:57:16.390Z,3.10
2022-09-21T20:59:43.529Z,2.58
2022-09-21T21:02:12.619Z,2.60
2022-09-21T21:04:40.186Z,2.88
2022-09-21T21:07:07.319Z,2.83
2022-09-21T21:09:34.024Z,3.25
2022-09-21T21:12:00.932Z,3.78
2022-09-21T21:14:27.597Z,2.95
2022-09-21T21:16:54.322Z,2.58
2022-09-21T21:19:21.266Z,3.45
2022-09-21T21:21:47.936Z,3.90
2022-09-21T21:24:33.400Z,3.75
2022-09-21T21:27:02.856Z,3.75
2022-09-21T21:29:30.814Z,4.78
2022-09-21T21:31:59.216Z,4.22
2022-09-21T21:34:26.274Z,3.75
2022-09-21T21:36:53.604Z,3.28
2022-09-21T21:39:20.321Z,3.63
2022-09-21T21:41:47.129Z,3.63
2022-09-21T21:44:13.831Z,3.40
2022-09-21T21:46:40.452Z,2.95
2022-09-21T21:49:07.205Z,2.58
2022-09-21T21:51:33.929Z,2.97
2022-09-21T21:54:00.727Z,1.98
2022-09-21T21:56:27.478Z,2.17
2022-09-21T21:58:55.020Z,2.47
2022-09-21T22:01:29.555Z,2.25
2022-09-21T22:04:01.236Z,2.20
2022-09-21T22:06:29.084Z,2.38
2022-09-21T22:08:56.731Z,2.03
2022-09-21T22:11:25.153Z,2.10
2022-09-21T22:13:53.909Z,2.65
2022-09-21T22:16:22.633Z,2.42
2022-09-21T22:18:50.302Z,3.42
2022-09-21T22:21:21.651Z,1.90
2022-09-21T22:23:56.974Z,2.13
2022-09-21T22:28:53.717Z,2.08
2022-09-21T22:31:22.808Z,1.40
2022-09-21T22:36:21.758Z,2.50
2022-09-21T22:38:49.572Z,2.00
2022-09-21T22:41:21.368Z,2.45
2022-09-21T22:43:50.036Z,2.25
2022-09-21T22:46:16.901Z,2.25
2022-09-21T22:48:43.708Z,2.50
2022-09-21T22:51:10.702Z,2.45
2022-09-21T22:53:37.392Z,2.53
2022-09-21T22:56:10.000Z,2.30
2022-09-21T22:58:39.765Z,2.25
2022-09-21T23:01:12.057Z,2.83
2022-09-21T23:03:40.241Z,2.03
2022-09-21T23:06:08.535Z,1.92
2022-09-21T23:08:35.223Z,1.15
2022-09-21T23:11:16.347Z,2.10
2022-09-21T23:13:43.125Z,1.23
2022-09-21T23:16:11.617Z,2.03
2022-09-21T23:18:39.210Z,2.22
2022-09-21T23:21:13.508Z,2.33
2022-09-21T23:23:41.051Z,2.00
2022-09-21T23:26:16.773Z,2.25
2022-09-21T23:28:45.725Z,2.58
2022-09-21T23:31:14.324Z,2.20
2022-09-21T23:33:49.183Z,1.55
2022-09-21T23:36:19.076Z,1.98
2022-09-21T23:38:46.944Z,2.28
2022-09-21T23:41:14.883Z,2.10
2022-09-21T23:43:43.097Z,2.40
2022-09-21T23:46:11.804Z,2.17
2022-09-21T23:48:38.963Z,1.95
2022-09-21T23:51:06.066Z,2.17
2022-09-21T23:53:32.820Z,2.33
2022-09-21T23:55:59.836Z,2.58
2022-09-21T23:58:27.461Z,2.67
